Flight Track Log - Related Links

Times and Time Zones

All times are in EDT time to prevent confusion due to time zone crossing. See the FSR411 flight status page for this flight to view local times or setup timezone preferences in your user account.

Time Position Orientation Groundspeed Altitude Reporting Facility
EDT Latitude Longitude Course Direction KTS MPH feet Rate Location/Type
Thu 08:54:48 AM 42.4681 -83.1025 309° West 246 283 4,700  Level Cleveland Center
Thu 08:55:49 AM 42.4658 -83.2008 268° West 257 296 7,800 3,088 Climbing Cleveland Center
Thu 08:57:04 AM 42.4592 -83.3075 265° West 282 325 11,700 2,373 Climbing Cleveland Center
Thu 08:58:03 AM 42.4544 -83.4228 267° West 295 339 13,100 1,950 Climbing Cleveland Center
Thu 08:59:04 AM 42.4492 -83.5436 267° West 308 354 15,600 2,678 Climbing Cleveland Center
Thu 09:00:04 AM 42.4458 -83.6728 268° West 333 383 18,500 3,025 Climbing Cleveland Center
Thu 09:01:03 AM 42.4397 -83.8133 267° West 355 409 21,600 2,550 Climbing Cleveland Center
Thu 09:02:04 AM 42.4336 -83.9564 267° West 376 433 23,600 2,083 Climbing Cleveland Center
Thu 09:03:04 AM 42.4289 -84.1139 268° West 397 457 25,800 1,966 Climbing Cleveland Center
Thu 09:04:03 AM 42.4261 -84.2711 269° West 417 480 27,500 1,100 Climbing Cleveland Center
Thu 09:05:04 AM 42.4311 -84.4319 272° West 425 489 28,000 221 Climbing Cleveland Center
Thu 09:06:19 AM 42.4386 -84.6306 273° West 429 494 28,000  Level Chicago Center
Thu 09:07:21 AM 42.4414 -84.7928 271° West 430 495 28,000  Level Chicago Center
Thu 09:08:23 AM 42.4453 -84.9550 272° West 431 496 28,000  Level Chicago Center
Thu 09:09:25 AM 42.4494 -85.1517 272° West 434 499 28,000  Level Chicago Center
Thu 09:10:27 AM 42.4539 -85.3150 272° West 434 499 28,000  Level Chicago Center
Thu 09:11:29 AM 42.4567 -85.4797 271° West 437 503 28,000  Level Chicago Center
Thu 09:12:32 AM 42.4597 -85.6456 271° West 439 505 28,000  Level Chicago Center
Thu 09:13:33 AM 42.4617 -85.8114 271° West 439 505 28,000  Level Chicago Center
Thu 09:14:35 AM 42.4644 -85.9783 271° West 442 509 28,000  Level Chicago Center
Thu 09:15:37 AM 42.4628 -86.1447 269° West 442 509 28,000  Level Chicago Center
Thu 09:16:39 AM 42.4353 -86.3461 260° West 451 519 28,000  Level Chicago Center
Thu 09:17:41 AM 42.4133 -86.5133 260° West 451 519 28,000  Level Chicago Center
Thu 09:18:43 AM 42.3944 -86.6775 261° West 448 516 28,000  Level Chicago Center
Thu 09:19:45 AM 42.3719 -86.8433 260° West 450 518 28,000  Level Chicago Center
Thu 09:20:47 AM 42.3522 -87.0108 261° West 454 522 28,000  Level Chicago Center
Thu 09:21:50 AM 42.3250 -87.2100 260° West 452 520 28,000  Level Chicago Center
Thu 09:22:52 AM 42.3019 -87.3750 259° West 452 520 28,000  Level Chicago Center
Thu 09:23:54 AM 42.2800 -87.5419 260° West 455 524 28,000  Level Chicago Center
Thu 09:24:56 AM 42.2561 -87.7086 259° West 456 525 28,000 -194 Level Chicago Center
Thu 09:25:58 AM 42.2319 -87.8756 259° West 457 526 27,600 -1,258 Descending Chicago Center
Thu 09:27:00 AM 42.2531 -88.0686 278° West 437 503 25,400 -2,468 Descending Chicago Center
Thu 09:28:02 AM 42.2931 -88.2086 291° West 408 470 22,500 -2,903 Descending Chicago Center
Thu 09:29:04 AM 42.3292 -88.3378 291° West 379 436 19,400 -2,855 Descending Chicago Center
Thu 09:30:06 AM 42.3644 -88.4622 291° West 366 421 16,600 -2,806 Descending Chicago Center
Thu 09:31:08 AM 42.3586 -88.5883 266° West 354 407 13,600 -2,903 Descending Chicago Center
Thu 09:32:10 AM 42.3239 -88.7331 252° West 346 398 10,600 -2,274 Descending Chicago Center
Thu 09:33:12 AM 42.3017 -88.8386 254° West 325 374 8,900 -1,790 Descending Chicago Center
Thu 09:34:14 AM 42.2817 -88.9342 254° West 282 325 6,900 -2,032 Descending Chicago Center
Thu 09:35:16 AM 42.2569 -89.0272 250° West 272 313 4,700 -2,032 Descending Chicago Center
Thu 09:36:18 AM 42.2250 -89.1183 245° Southwest 269 310 2,700 -1,056 Descending Chicago Center
Thu 09:37:21 AM 42.1947 -89.1978 243° Southwest 252 290 2,500 -432 Descending Chicago Center
Thu 09:38:23 AM 42.1664 -89.1681 142° Southeast 185 213 1,800 -677 Descending Chicago Center

Login

Don't have an account? Register now (free) for customized features, flight alerts, and more!